createdAt,value
2023-02-12T00:00:19.799Z,43.47
2023-02-12T00:02:53.251Z,44.13
2023-02-12T00:05:20.354Z,47.80
2023-02-12T00:07:54.231Z,41.83
2023-02-12T00:10:21.267Z,46.20
2023-02-12T00:12:55.362Z,44.63
2023-02-12T00:15:22.381Z,48.42
2023-02-12T00:17:49.396Z,45.38
2023-02-12T00:20:23.258Z,42.22
2023-02-12T00:22:50.176Z,47.53
2023-02-12T00:25:24.304Z,48.20
2023-02-12T00:27:59.317Z,48.40
2023-02-12T00:30:33.425Z,41.40
2023-02-12T00:33:00.498Z,43.17
2023-02-12T00:35:34.321Z,39.95
2023-02-12T00:38:01.384Z,44.53
2023-02-12T00:40:35.221Z,41.03
2023-02-12T00:43:09.042Z,38.90
2023-02-12T00:45:42.221Z,43.53
2023-02-12T00:48:09.159Z,38.65
2023-02-12T00:50:42.253Z,39.42
2023-02-12T00:53:09.174Z,43.35
2023-02-12T00:55:42.310Z,43.53
2023-02-12T00:58:09.568Z,46.45
2023-02-12T01:00:43.275Z,40.72
2023-02-12T01:03:17.265Z,40.10
2023-02-12T01:05:44.345Z,39.95
2023-02-12T01:08:15.420Z,41.90
2023-02-12T01:10:49.269Z,41.33
2023-02-12T01:13:16.301Z,37.75
2023-02-12T01:15:43.335Z,39.92
2023-02-12T01:18:17.270Z,40.78
2023-02-12T01:20:44.301Z,45.10
2023-02-12T01:23:18.272Z,38.25
2023-02-12T01:25:51.364Z,41.20
2023-02-12T01:28:18.386Z,40.15
2023-02-12T01:30:45.432Z,40.40
2023-02-12T01:33:19.303Z,40.70
2023-02-12T01:35:46.345Z,41.60
2023-02-12T01:38:20.323Z,44.85
2023-02-12T01:40:47.337Z,45.25
2023-02-12T01:43:15.480Z,41.92
2023-02-12T01:45:57.641Z,40.72
2023-02-12T01:48:26.025Z,40.92
2023-02-12T01:50:59.274Z,41.40
2023-02-12T01:53:42.402Z,44.08
2023-02-12T01:56:16.320Z,46.72
2023-02-12T01:58:50.314Z,47.33
2023-02-12T02:01:28.379Z,49.67
2023-02-12T02:04:12.133Z,53.22
2023-02-12T02:06:54.483Z,45.05
2023-02-12T02:09:28.316Z,44.70
2023-02-12T02:11:55.653Z,46.05
2023-02-12T02:14:29.294Z,45.20
2023-02-12T02:17:45.298Z,44.95
2023-02-12T02:20:49.043Z,48.13
2023-02-12T02:23:41.344Z,44.70
2023-02-12T02:26:33.185Z,49.58
2023-02-12T02:29:17.266Z,44.17
2023-02-12T02:31:53.388Z,43.30
2023-02-12T02:34:44.994Z,41.67
2023-02-12T02:37:38.307Z,39.97
2023-02-12T02:40:25.358Z,44.63
2023-02-12T02:42:57.008Z,43.17
2023-02-12T02:45:52.362Z,39.15
2023-02-12T02:48:29.443Z,42.65
2023-02-12T02:51:06.266Z,47.08
2023-02-12T02:53:47.255Z,41.03
2023-02-12T02:56:26.377Z,41.45
2023-02-12T02:59:07.640Z,42.45
2023-02-12T03:01:46.308Z,44.22
2023-02-12T03:04:33.998Z,42.15
2023-02-12T03:07:33.403Z,44.78
2023-02-12T03:10:06.912Z,43.20
2023-02-12T03:12:45.317Z,38.63
2023-02-12T03:15:18.986Z,42.00
2023-02-12T03:17:53.357Z,40.13
2023-02-12T03:20:33.325Z,42.28
2023-02-12T03:23:17.356Z,43.40
2023-02-12T03:25:58.373Z,43.28
2023-02-12T03:28:43.323Z,45.03
2023-02-12T03:31:20.477Z,49.60
2023-02-12T03:34:35.364Z,52.22
2023-02-12T03:37:23.352Z,53.30
2023-02-12T03:39:58.769Z,48.75
2023-02-12T03:42:51.373Z,47.42
2023-02-12T03:45:59.977Z,45.00
2023-02-12T03:48:48.327Z,51.28
2023-02-12T03:51:38.043Z,53.92
2023-02-12T03:54:12.380Z,46.08
2023-02-12T03:56:59.345Z,50.20
2023-02-12T03:59:33.350Z,44.05
2023-02-12T04:02:07.447Z,47.97
2023-02-12T04:04:41.367Z,47.00
2023-02-12T04:07:08.375Z,42.40
2023-02-12T04:09:42.384Z,40.78
2023-02-12T04:12:39.599Z,40.38
2023-02-12T04:15:22.345Z,37.63
2023-02-12T04:18:09.382Z,39.17
2023-02-12T04:20:59.337Z,39.97
2023-02-12T04:23:47.716Z,35.78
2023-02-12T04:26:39.382Z,37.72
2023-02-12T04:29:46.349Z,35.15
2023-02-12T04:32:37.374Z,37.30
2023-02-12T04:35:10.112Z,39.08
2023-02-12T04:37:48.410Z,40.53
2023-02-12T04:40:24.331Z,41.92
2023-02-12T04:42:52.683Z,40.03
2023-02-12T04:45:38.358Z,40.67
2023-02-12T04:48:05.758Z,38.72
2023-02-12T04:50:49.367Z,37.13
2023-02-12T04:53:16.464Z,34.47
2023-02-12T04:55:50.391Z,35.83
2023-02-12T04:58:24.331Z,36.78
2023-02-12T05:00:58.450Z,34.00
2023-02-12T05:03:25.496Z,35.40
2023-02-12T05:05:59.295Z,40.72
2023-02-12T05:08:26.334Z,42.78
2023-02-12T05:10:59.311Z,41.20
2023-02-12T05:13:33.356Z,41.55
2023-02-12T05:16:00.554Z,37.95
2023-02-12T05:18:27.614Z,39.92
2023-02-12T05:21:08.342Z,38.33
2023-02-12T05:23:36.925Z,37.08
2023-02-12T05:26:14.408Z,43.33
2023-02-12T05:28:41.702Z,33.85
2023-02-12T05:31:20.067Z,38.70
2023-02-12T05:33:48.573Z,36.72
2023-02-12T05:36:25.406Z,42.47
2023-02-12T05:38:53.144Z,38.90
2023-02-12T05:41:29.372Z,38.78
2023-02-12T05:43:56.360Z,40.95
2023-02-12T05:46:23.494Z,41.28
2023-02-12T05:48:57.392Z,36.20
2023-02-12T05:51:26.126Z,36.50
2023-02-12T05:54:04.425Z,29.40
2023-02-12T05:56:33.686Z,30.25
2023-02-12T05:59:10.388Z,27.70
2023-02-12T06:01:39.941Z,31.15
2023-02-12T06:04:17.395Z,29.42
2023-02-12T06:06:44.600Z,29.77
2023-02-12T06:09:18.389Z,35.03
2023-02-12T06:11:45.509Z,32.33
2023-02-12T06:14:16.126Z,31.63
2023-02-12T06:16:55.317Z,31.75
2023-02-12T06:19:22.465Z,33.72
2023-02-12T06:21:56.394Z,33.00
2023-02-12T06:24:23.391Z,33.60
2023-02-12T06:26:51.137Z,30.33
2023-02-12T06:29:25.420Z,30.30
2023-02-12T06:31:52.605Z,34.22
2023-02-12T06:34:26.436Z,35.78
2023-02-12T06:37:00.439Z,34.47
2023-02-12T06:39:27.383Z,33.03
2023-02-12T06:42:00.445Z,31.60
2023-02-12T06:44:34.483Z,30.73
2023-02-12T06:47:01.486Z,37.75
2023-02-12T06:49:35.435Z,33.15
2023-02-12T06:52:03.549Z,30.35
2023-02-12T06:54:37.386Z,32.42
2023-02-12T06:57:04.381Z,33.00
2023-02-12T06:59:38.385Z,40.88
2023-02-12T07:02:05.337Z,50.63
2023-02-12T07:04:32.368Z,36.10
2023-02-12T07:07:05.478Z,39.78
2023-02-12T07:09:32.619Z,38.70
2023-02-12T07:11:59.987Z,39.13
2023-02-12T07:14:33.382Z,35.95
2023-02-12T07:17:00.388Z,29.40
2023-02-12T07:19:34.400Z,35.17
2023-02-12T07:22:01.408Z,31.35
2023-02-12T07:24:35.408Z,30.92
2023-02-12T07:27:08.427Z,29.90
2023-02-12T07:29:35.372Z,37.45
2023-02-12T07:32:02.343Z,36.25
2023-02-12T07:34:35.379Z,35.30
2023-02-12T07:37:02.383Z,32.33
2023-02-12T07:39:35.408Z,29.65
2023-02-12T07:42:02.417Z,33.67
2023-02-12T07:44:35.430Z,36.08
2023-02-12T07:47:02.376Z,32.40
2023-02-12T07:49:29.332Z,36.47
2023-02-12T07:52:10.989Z,33.92
2023-02-12T07:54:40.019Z,38.70
2023-02-12T07:57:13.486Z,40.60
2023-02-12T07:59:40.418Z,35.90
2023-02-12T08:02:13.413Z,37.13
2023-02-12T08:04:40.419Z,32.17
2023-02-12T08:07:14.479Z,34.50
2023-02-12T08:09:41.506Z,36.10
2023-02-12T08:12:15.442Z,33.85
2023-02-12T08:14:42.487Z,41.80
2023-02-12T08:17:22.439Z,41.63
2023-02-12T08:19:49.412Z,38.97
2023-02-12T08:22:22.420Z,42.88
2023-02-12T08:24:55.432Z,35.88
2023-02-12T08:27:22.771Z,37.47
2023-02-12T08:29:56.489Z,35.67
2023-02-12T08:32:23.463Z,34.00
2023-02-12T08:34:56.459Z,27.25
2023-02-12T08:37:23.452Z,26.55
2023-02-12T08:39:56.411Z,25.65
2023-02-12T08:42:29.490Z,36.63
2023-02-12T08:44:56.554Z,28.17
2023-02-12T08:47:23.515Z,27.90
2023-02-12T08:49:57.398Z,28.75
2023-02-12T08:52:30.461Z,29.25
2023-02-12T08:54:57.447Z,26.25
2023-02-12T08:57:24.374Z,33.05
2023-02-12T08:59:57.442Z,32.58
2023-02-12T09:02:30.516Z,30.42
2023-02-12T09:05:04.449Z,29.48
2023-02-12T09:07:31.427Z,30.10
2023-02-12T09:10:04.471Z,29.48
2023-02-12T09:12:38.415Z,26.65
2023-02-12T09:15:12.499Z,28.10
2023-02-12T09:17:39.669Z,27.88
2023-02-12T09:20:14.413Z,27.98
2023-02-12T09:22:47.482Z,33.33
2023-02-12T09:25:14.505Z,44.25
2023-02-12T09:27:47.470Z,34.15
2023-02-12T09:30:21.474Z,37.90
2023-02-12T09:32:48.553Z,43.17
2023-02-12T09:35:15.664Z,36.08
2023-02-12T09:37:49.436Z,34.88
2023-02-12T09:40:44.516Z,29.48
2023-02-12T09:43:40.371Z,26.98
2023-02-12T09:46:27.582Z,26.15
2023-02-12T09:49:12.561Z,26.27
2023-02-12T09:51:49.738Z,29.52
2023-02-12T09:54:23.247Z,23.50
2023-02-12T09:57:00.495Z,25.25
2023-02-12T09:59:43.645Z,27.40
2023-02-12T10:02:24.525Z,23.77
2023-02-12T10:05:01.173Z,28.25
2023-02-12T10:08:15.565Z,25.85
2023-02-12T10:11:20.971Z,24.27
2023-02-12T10:14:41.530Z,32.05
2023-02-12T10:17:24.525Z,31.08
2023-02-12T10:20:31.464Z,31.08
2023-02-12T10:23:16.379Z,28.95
2023-02-12T10:26:00.820Z,29.33
2023-02-12T10:28:46.610Z,29.48
2023-02-12T10:31:39.641Z,26.92
2023-02-12T10:34:37.530Z,27.65
2023-02-12T10:37:40.792Z,27.65
2023-02-12T10:40:36.502Z,27.25
2023-02-12T10:43:03.620Z,25.52
2023-02-12T10:45:40.505Z,25.13
2023-02-12T10:48:22.538Z,26.55
2023-02-12T10:51:35.623Z,23.58
2023-02-12T10:54:47.564Z,23.52
2023-02-12T10:57:40.926Z,22.75
2023-02-12T11:00:36.518Z,23.48
2023-02-12T11:03:19.480Z,23.27
2023-02-12T11:05:52.553Z,25.02
2023-02-12T11:08:40.547Z,20.63
2023-02-12T11:11:12.246Z,19.08
2023-02-12T11:14:02.560Z,26.45
2023-02-12T11:16:37.990Z,21.38
2023-02-12T11:19:17.520Z,19.23
2023-02-12T11:21:50.543Z,16.85
2023-02-12T11:24:26.773Z,16.75
2023-02-12T11:27:27.543Z,16.85
2023-02-12T11:30:21.314Z,17.08
2023-02-12T11:32:54.582Z,14.93
2023-02-12T11:35:25.407Z,17.88
2023-02-12T11:38:04.540Z,17.67
2023-02-12T11:40:32.641Z,16.48
2023-02-12T11:43:13.593Z,15.32
2023-02-12T11:45:47.384Z,16.88
2023-02-12T11:48:38.562Z,17.38
2023-02-12T11:51:08.771Z,17.60
2023-02-12T11:53:48.581Z,18.52
2023-02-12T11:56:15.558Z,16.60
2023-02-12T11:58:49.513Z,17.20
2023-02-12T12:01:27.541Z,14.15
2023-02-12T12:04:15.554Z,17.13
2023-02-12T12:06:54.428Z,16.45
2023-02-12T12:09:32.598Z,14.68
2023-02-12T12:12:28.640Z,14.32
2023-02-12T12:15:33.571Z,14.25
2023-02-12T12:18:13.373Z,13.90
2023-02-12T12:21:14.562Z,15.57
2023-02-12T12:24:09.582Z,18.15
2023-02-12T12:26:36.658Z,13.93
2023-02-12T12:29:28.647Z,13.52
2023-02-12T12:32:01.605Z,12.32
2023-02-12T12:34:35.541Z,14.15
2023-02-12T12:37:17.439Z,12.65
2023-02-12T12:40:44.559Z,14.50
2023-02-12T12:43:55.568Z,14.05
2023-02-12T12:47:07.272Z,12.57
2023-02-12T12:49:40.623Z,13.15
2023-02-12T12:52:37.589Z,14.00
2023-02-12T12:55:27.560Z,13.57
2023-02-12T12:58:34.568Z,14.98
2023-02-12T13:01:41.554Z,13.57
2023-02-12T13:04:47.550Z,13.32
2023-02-12T13:08:07.594Z,16.10
2023-02-12T13:10:46.618Z,14.18
2023-02-12T13:13:34.258Z,17.67
2023-02-12T13:16:14.633Z,12.70
2023-02-12T13:19:18.600Z,14.65
2023-02-12T13:22:19.676Z,13.88
2023-02-12T13:25:11.602Z,15.20
2023-02-12T13:27:46.601Z,17.35
2023-02-12T13:30:33.643Z,16.70
2023-02-12T13:33:28.565Z,15.90
2023-02-12T13:35:58.966Z,21.10
2023-02-12T13:38:38.624Z,16.90
2023-02-12T13:41:08.227Z,20.48
2023-02-12T13:44:08.616Z,16.05
2023-02-12T13:46:47.838Z,17.63
2023-02-12T13:50:01.677Z,18.23
2023-02-12T13:52:48.685Z,17.20
2023-02-12T13:55:34.443Z,20.92
2023-02-12T13:58:38.630Z,19.67
2023-02-12T14:01:07.731Z,20.25
2023-02-12T14:03:41.654Z,20.08
2023-02-12T14:06:20.435Z,17.58
2023-02-12T14:09:00.649Z,17.88
2023-02-12T14:11:27.522Z,15.57
2023-02-12T14:14:07.652Z,19.20
2023-02-12T14:16:34.472Z,16.48
2023-02-12T14:19:57.651Z,19.48
2023-02-12T14:22:27.301Z,16.08
2023-02-12T14:25:22.618Z,19.98
2023-02-12T14:28:00.524Z,18.80
2023-02-12T14:30:44.636Z,16.42
2023-02-12T14:33:20.838Z,17.30
2023-02-12T14:35:56.917Z,21.83
2023-02-12T14:38:32.138Z,19.77
2023-02-12T14:41:36.673Z,21.38
2023-02-12T14:44:18.828Z,22.52
2023-02-12T14:47:08.653Z,24.15
2023-02-12T14:49:47.058Z,21.65
2023-02-12T14:52:20.653Z,22.80
2023-02-12T14:55:04.882Z,23.52
2023-02-12T14:57:45.649Z,23.63
2023-02-12T15:00:18.701Z,21.40
2023-02-12T15:03:00.629Z,22.58
2023-02-12T15:05:32.400Z,20.00
2023-02-12T15:08:12.689Z,21.20
2023-02-12T15:10:49.202Z,20.92
2023-02-12T15:13:43.613Z,22.65
2023-02-12T15:16:41.141Z,21.65
2023-02-12T15:19:46.662Z,27.13
2023-02-12T15:22:32.072Z,24.08
2023-02-12T15:25:34.631Z,23.70
2023-02-12T15:28:19.569Z,27.77
2023-02-12T15:30:52.689Z,31.23
2023-02-12T15:33:27.089Z,28.95
2023-02-12T15:36:00.639Z,26.10
2023-02-12T15:38:38.842Z,29.13
2023-02-12T15:41:12.677Z,29.85
2023-02-12T15:43:41.106Z,27.60
2023-02-12T15:46:22.662Z,27.52
2023-02-12T15:48:49.627Z,27.30
2023-02-12T15:51:50.716Z,27.23
2023-02-12T15:54:19.185Z,27.13
2023-02-12T15:56:52.675Z,35.25
2023-02-12T15:59:24.782Z,34.00
2023-02-12T16:02:08.652Z,27.50
2023-02-12T16:04:35.533Z,29.20
2023-02-12T16:07:02.404Z,30.83
2023-02-12T16:09:40.697Z,31.05
2023-02-12T16:12:12.538Z,30.13
2023-02-12T16:15:00.728Z,35.05
2023-02-12T16:17:37.666Z,42.33
2023-02-12T16:20:20.331Z,44.95
2023-02-12T16:22:55.718Z,39.15
2023-02-12T16:25:37.737Z,44.67
2023-02-12T16:28:23.702Z,42.30
2023-02-12T16:30:50.684Z,43.78
2023-02-12T16:33:46.732Z,42.47
2023-02-12T16:36:19.932Z,44.10
2023-02-12T16:38:55.741Z,39.58
2023-02-12T16:41:33.713Z,41.97
2023-02-12T16:44:00.542Z,40.85
2023-02-12T16:46:37.669Z,36.33
2023-02-12T16:49:04.709Z,39.95
2023-02-12T16:51:42.744Z,41.45
2023-02-12T16:54:31.332Z,40.92
2023-02-12T16:57:05.759Z,41.03
2023-02-12T16:59:32.697Z,44.28
2023-02-12T17:02:16.751Z,40.53
2023-02-12T17:04:50.755Z,45.00
2023-02-12T17:07:23.241Z,45.80
2023-02-12T17:09:56.729Z,43.95
2023-02-12T17:12:23.919Z,43.95
2023-02-12T17:14:57.721Z,42.40
2023-02-12T17:17:30.738Z,43.50
2023-02-12T17:19:57.748Z,44.22
2023-02-12T17:22:31.790Z,44.97
2023-02-12T17:25:04.750Z,43.75
2023-02-12T17:27:31.832Z,41.35
2023-02-12T17:30:05.785Z,39.53
2023-02-12T17:32:45.729Z,41.95
2023-02-12T17:35:12.804Z,45.03
2023-02-12T17:37:46.761Z,42.88
2023-02-12T17:40:20.955Z,38.67
2023-02-12T17:42:47.976Z,40.70
2023-02-12T17:45:15.153Z,43.05
2023-02-12T17:47:48.774Z,42.92
2023-02-12T17:50:16.056Z,43.45
2023-02-12T17:52:49.782Z,47.28
2023-02-12T17:55:16.876Z,45.33
2023-02-12T17:57:50.814Z,45.58
2023-02-12T18:00:18.793Z,45.40
2023-02-12T18:02:52.848Z,47.85
2023-02-12T18:05:19.835Z,47.50
2023-02-12T18:07:46.782Z,50.22
2023-02-12T18:10:19.859Z,53.35
2023-02-12T18:12:46.849Z,52.97
2023-02-12T18:15:20.883Z,51.10
2023-02-12T18:17:47.817Z,42.70
2023-02-12T18:20:21.794Z,46.78
2023-02-12T18:22:49.182Z,39.67
2023-02-12T18:25:23.882Z,40.90
2023-02-12T18:27:57.766Z,40.60
2023-02-12T18:30:24.702Z,40.35
2023-02-12T18:32:52.860Z,35.25
2023-02-12T18:35:26.769Z,41.90
2023-02-12T18:37:53.798Z,40.70
2023-02-12T18:40:20.934Z,41.22
2023-02-12T18:42:54.751Z,61.10
2023-02-12T18:45:27.803Z,155.73
2023-02-12T18:47:54.767Z,155.23
2023-02-12T18:50:27.808Z,92.57
2023-02-12T18:52:54.798Z,82.38
2023-02-12T18:55:28.785Z,84.35
2023-02-12T18:57:55.720Z,88.88
2023-02-12T19:00:28.811Z,102.20
2023-02-12T19:02:55.775Z,90.22
2023-02-12T19:05:29.787Z,75.93
2023-02-12T19:07:56.699Z,57.92
2023-02-12T19:10:29.801Z,46.47
2023-02-12T19:12:56.970Z,44.78
2023-02-12T19:15:30.802Z,47.78
2023-02-12T19:17:57.841Z,59.08
2023-02-12T19:20:24.851Z,79.07
2023-02-12T19:22:58.789Z,100.63
2023-02-12T19:25:25.795Z,140.45
2023-02-12T19:27:52.702Z,179.90
2023-02-12T19:30:25.776Z,171.63
2023-02-12T19:32:58.785Z,127.95
2023-02-12T19:35:25.806Z,108.50
2023-02-12T19:37:59.777Z,98.90
2023-02-12T19:40:26.788Z,88.50
2023-02-12T19:42:59.804Z,84.03
2023-02-12T19:45:26.792Z,89.80
2023-02-12T19:47:59.855Z,101.75
2023-02-12T19:50:35.357Z,78.20
2023-02-12T19:53:02.413Z,67.70
2023-02-12T19:55:35.787Z,69.43
2023-02-12T19:58:02.727Z,72.47
2023-02-12T20:00:35.823Z,54.45
2023-02-12T20:03:08.830Z,49.92
2023-02-12T20:05:35.804Z,52.88
2023-02-12T20:08:08.859Z,53.65
2023-02-12T20:10:35.744Z,56.70
2023-02-12T20:13:08.847Z,57.70
2023-02-12T20:15:42.994Z,46.22
2023-02-12T20:18:10.847Z,43.75
2023-02-12T20:20:43.810Z,40.70
2023-02-12T20:23:16.850Z,37.90
2023-02-12T20:25:44.666Z,42.63
2023-02-12T20:28:17.879Z,40.80
2023-02-12T20:30:51.916Z,46.00
2023-02-12T20:33:25.855Z,50.45
2023-02-12T20:36:03.852Z,53.33
2023-02-12T20:38:30.920Z,50.95
2023-02-12T20:41:07.916Z,60.10
2023-02-12T20:43:35.123Z,53.88
2023-02-12T20:46:18.849Z,51.67
2023-02-12T20:48:45.899Z,48.28
2023-02-12T20:51:22.920Z,46.85
2023-02-12T20:53:50.247Z,44.40
2023-02-12T20:56:31.847Z,53.95
2023-02-12T20:59:05.876Z,51.50
2023-02-12T21:01:37.645Z,55.85
2023-02-12T21:04:19.904Z,56.47
2023-02-12T21:06:53.822Z,54.72
2023-02-12T21:09:20.897Z,57.72
2023-02-12T21:11:54.862Z,57.03
2023-02-12T21:14:27.809Z,57.05
2023-02-12T21:16:55.615Z,58.35
2023-02-12T21:19:33.012Z,50.50
2023-02-12T21:21:59.957Z,57.85
2023-02-12T21:24:34.387Z,62.15
2023-02-12T21:27:07.862Z,59.17
2023-02-12T21:29:34.814Z,55.88
2023-02-12T21:32:01.896Z,61.30
2023-02-12T21:34:35.858Z,64.25
2023-02-12T21:37:02.856Z,61.38
2023-02-12T21:39:35.895Z,62.75
2023-02-12T21:42:03.564Z,54.95
2023-02-12T21:44:38.890Z,59.03
2023-02-12T21:47:12.871Z,58.75
2023-02-12T21:49:39.844Z,58.22
2023-02-12T21:52:12.845Z,59.58
2023-02-12T21:54:45.853Z,58.13
2023-02-12T21:57:18.875Z,59.83
2023-02-12T21:59:45.762Z,60.45
2023-02-12T22:02:12.673Z,54.78
2023-02-12T22:04:45.945Z,57.42
2023-02-12T22:07:12.868Z,60.10
2023-02-12T22:09:45.880Z,59.08
2023-02-12T22:12:12.951Z,58.40
2023-02-12T22:14:45.837Z,55.83
2023-02-12T22:17:18.821Z,56.33
2023-02-12T22:19:45.774Z,64.35
2023-02-12T22:22:18.878Z,60.40
2023-02-12T22:24:52.851Z,61.63
2023-02-12T22:27:25.825Z,61.05
2023-02-12T22:29:52.717Z,57.08
2023-02-12T22:32:25.953Z,58.78
2023-02-12T22:34:53.318Z,51.05
2023-02-12T22:37:26.902Z,55.35
2023-02-12T22:39:53.857Z,54.78
2023-02-12T22:42:26.902Z,58.70
2023-02-12T22:44:53.987Z,56.40
2023-02-12T22:47:30.923Z,55.40
2023-02-12T22:50:07.913Z,54.58
2023-02-12T22:52:34.998Z,55.88
2023-02-12T22:55:08.903Z,55.30
2023-02-12T22:57:35.871Z,50.15
2023-02-12T23:00:08.868Z,55.75
2023-02-12T23:02:41.919Z,51.30
2023-02-12T23:05:08.872Z,49.08
2023-02-12T23:07:35.803Z,48.75
2023-02-12T23:10:08.875Z,49.35
2023-02-12T23:12:42.608Z,46.33
2023-02-12T23:15:15.887Z,45.72
2023-02-12T23:17:42.819Z,50.88
2023-02-12T23:20:16.920Z,46.03
2023-02-12T23:22:43.833Z,47.42
2023-02-12T23:25:16.847Z,49.85
2023-02-12T23:27:43.787Z,52.95
2023-02-12T23:30:17.885Z,52.42
2023-02-12T23:32:50.869Z,52.33
2023-02-12T23:35:23.930Z,47.58
2023-02-12T23:37:57.868Z,47.72
2023-02-12T23:40:24.780Z,47.17
2023-02-12T23:42:51.662Z,46.35
2023-02-12T23:45:24.941Z,52.92
2023-02-12T23:47:51.959Z,50.78
2023-02-12T23:50:19.057Z,50.80
2023-02-12T23:52:52.951Z,49.38
2023-02-12T23:55:25.899Z,47.92
2023-02-12T23:57:52.820Z,46.35
